sensor_id;sensor_type;location;lat;lon;timestamp;P1;durP1;ratioP1;P2;durP2;ratioP2
30384;SDS011;17181;51.002;4.096;2022-08-19T00:00:29;32.97;;;15.37;;
30384;SDS011;17181;51.002;4.096;2022-08-19T00:02:55;28.47;;;14.83;;
30384;SDS011;17181;51.002;4.096;2022-08-19T00:05:21;33.37;;;16.47;;
30384;SDS011;17181;51.002;4.096;2022-08-19T00:07:48;26.57;;;15.17;;
30384;SDS011;17181;51.002;4.096;2022-08-19T00:10:15;31.87;;;15.57;;
30384;SDS011;17181;51.002;4.096;2022-08-19T00:12:42;26.23;;;14.93;;
30384;SDS011;17181;51.002;4.096;2022-08-19T00:15:09;39.93;;;16.83;;
30384;SDS011;17181;51.002;4.096;2022-08-19T00:17:41;30.20;;;17.07;;
30384;SDS011;17181;51.002;4.096;2022-08-19T00:20:10;23.90;;;15.07;;
30384;SDS011;17181;51.002;4.096;2022-08-19T00:22:37;29.57;;;15.07;;
30384;SDS011;17181;51.002;4.096;2022-08-19T00:25:04;28.83;;;16.27;;
30384;SDS011;17181;51.002;4.096;2022-08-19T00:27:31;37.97;;;15.90;;
30384;SDS011;17181;51.002;4.096;2022-08-19T00:29:57;32.87;;;16.97;;
30384;SDS011;17181;51.002;4.096;2022-08-19T00:32:24;29.20;;;16.80;;
30384;SDS011;17181;51.002;4.096;2022-08-19T00:34:51;33.07;;;16.23;;
30384;SDS011;17181;51.002;4.096;2022-08-19T00:37:18;26.80;;;15.77;;
30384;SDS011;17181;51.002;4.096;2022-08-19T00:39:48;29.43;;;15.50;;
30384;SDS011;17181;51.002;4.096;2022-08-19T00:42:16;29.83;;;16.70;;
30384;SDS011;17181;51.002;4.096;2022-08-19T00:44:44;35.20;;;16.53;;
30384;SDS011;17181;51.002;4.096;2022-08-19T00:47:10;33.90;;;16.90;;
30384;SDS011;17181;51.002;4.096;2022-08-19T00:49:38;33.10;;;17.53;;
30384;SDS011;17181;51.002;4.096;2022-08-19T00:52:15;32.67;;;17.53;;
30384;SDS011;17181;51.002;4.096;2022-08-19T00:54:45;35.53;;;18.07;;
30384;SDS011;17181;51.002;4.096;2022-08-19T00:57:14;36.57;;;18.70;;
30384;SDS011;17181;51.002;4.096;2022-08-19T00:59:42;34.07;;;17.03;;
30384;SDS011;17181;51.002;4.096;2022-08-19T01:02:11;35.47;;;18.90;;
30384;SDS011;17181;51.002;4.096;2022-08-19T01:04:37;32.67;;;17.07;;
30384;SDS011;17181;51.002;4.096;2022-08-19T01:07:03;40.13;;;19.20;;
30384;SDS011;17181;51.002;4.096;2022-08-19T01:09:29;40.63;;;18.87;;
30384;SDS011;17181;51.002;4.096;2022-08-19T01:11:56;39.37;;;18.47;;
30384;SDS011;17181;51.002;4.096;2022-08-19T01:14:22;38.33;;;19.33;;
30384;SDS011;17181;51.002;4.096;2022-08-19T01:16:49;47.60;;;17.87;;
30384;SDS011;17181;51.002;4.096;2022-08-19T01:19:29;39.47;;;18.67;;
30384;SDS011;17181;51.002;4.096;2022-08-19T01:22:02;42.00;;;19.23;;
30384;SDS011;17181;51.002;4.096;2022-08-19T01:24:31;34.07;;;17.70;;
30384;SDS011;17181;51.002;4.096;2022-08-19T01:26:58;35.70;;;18.73;;
30384;SDS011;17181;51.002;4.096;2022-08-19T01:29:23;42.53;;;18.77;;
30384;SDS011;17181;51.002;4.096;2022-08-19T01:31:49;31.00;;;16.33;;
30384;SDS011;17181;51.002;4.096;2022-08-19T01:34:17;38.03;;;18.43;;
30384;SDS011;17181;51.002;4.096;2022-08-19T01:36:45;37.33;;;17.80;;
30384;SDS011;17181;51.002;4.096;2022-08-19T01:39:21;35.00;;;14.60;;
30384;SDS011;17181;51.002;4.096;2022-08-19T01:41:49;32.20;;;16.47;;
30384;SDS011;17181;51.002;4.096;2022-08-19T01:44:15;39.53;;;18.03;;
30384;SDS011;17181;51.002;4.096;2022-08-19T01:46:41;38.83;;;17.83;;
30384;SDS011;17181;51.002;4.096;2022-08-19T01:49:08;41.10;;;19.40;;
30384;SDS011;17181;51.002;4.096;2022-08-19T01:51:35;35.87;;;17.67;;
30384;SDS011;17181;51.002;4.096;2022-08-19T01:54:01;40.10;;;17.43;;
30384;SDS011;17181;51.002;4.096;2022-08-19T01:56:28;32.00;;;16.47;;
30384;SDS011;17181;51.002;4.096;2022-08-19T01:58:55;36.03;;;16.77;;
30384;SDS011;17181;51.002;4.096;2022-08-19T02:01:28;31.83;;;14.97;;
30384;SDS011;17181;51.002;4.096;2022-08-19T02:03:57;37.70;;;16.40;;
30384;SDS011;17181;51.002;4.096;2022-08-19T02:06:23;35.43;;;15.30;;
30384;SDS011;17181;51.002;4.096;2022-08-19T02:08:49;28.57;;;14.33;;
30384;SDS011;17181;51.002;4.096;2022-08-19T02:11:19;33.10;;;14.07;;
30384;SDS011;17181;51.002;4.096;2022-08-19T02:13:46;33.67;;;15.37;;
30384;SDS011;17181;51.002;4.096;2022-08-19T02:16:12;29.47;;;14.80;;
30384;SDS011;17181;51.002;4.096;2022-08-19T02:18:38;28.87;;;15.60;;
30384;SDS011;17181;51.002;4.096;2022-08-19T02:21:04;25.87;;;15.97;;
30384;SDS011;17181;51.002;4.096;2022-08-19T02:23:30;25.40;;;14.87;;
30384;SDS011;17181;51.002;4.096;2022-08-19T02:25:56;32.23;;;15.27;;
30384;SDS011;17181;51.002;4.096;2022-08-19T02:28:22;26.50;;;14.17;;
30384;SDS011;17181;51.002;4.096;2022-08-19T02:30:48;31.07;;;14.20;;
30384;SDS011;17181;51.002;4.096;2022-08-19T02:33:14;23.20;;;12.73;;
30384;SDS011;17181;51.002;4.096;2022-08-19T02:35:41;27.80;;;12.87;;
30384;SDS011;17181;51.002;4.096;2022-08-19T02:38:08;25.53;;;12.80;;
30384;SDS011;17181;51.002;4.096;2022-08-19T02:40:56;24.73;;;11.40;;
30384;SDS011;17181;51.002;4.096;2022-08-19T02:43:24;16.50;;;9.77;;
30384;SDS011;17181;51.002;4.096;2022-08-19T02:45:51;23.53;;;11.93;;
30384;SDS011;17181;51.002;4.096;2022-08-19T02:48:20;23.57;;;10.43;;
30384;SDS011;17181;51.002;4.096;2022-08-19T02:50:49;27.53;;;12.10;;
30384;SDS011;17181;51.002;4.096;2022-08-19T02:53:23;25.30;;;11.90;;
30384;SDS011;17181;51.002;4.096;2022-08-19T02:55:52;22.83;;;11.30;;
30384;SDS011;17181;51.002;4.096;2022-08-19T02:58:18;19.50;;;10.63;;
30384;SDS011;17181;51.002;4.096;2022-08-19T03:00:53;22.57;;;11.43;;
30384;SDS011;17181;51.002;4.096;2022-08-19T03:03:20;19.10;;;10.23;;
30384;SDS011;17181;51.002;4.096;2022-08-19T03:05:46;24.63;;;12.07;;
30384;SDS011;17181;51.002;4.096;2022-08-19T03:08:12;22.50;;;10.13;;
30384;SDS011;17181;51.002;4.096;2022-08-19T03:10:40;30.13;;;9.93;;
30384;SDS011;17181;51.002;4.096;2022-08-19T03:13:09;24.73;;;11.67;;
30384;SDS011;17181;51.002;4.096;2022-08-19T03:15:38;20.90;;;11.63;;
30384;SDS011;17181;51.002;4.096;2022-08-19T03:18:05;20.40;;;11.13;;
30384;SDS011;17181;51.002;4.096;2022-08-19T03:20:31;19.17;;;9.80;;
30384;SDS011;17181;51.002;4.096;2022-08-19T03:22:57;22.97;;;11.47;;
30384;SDS011;17181;51.002;4.096;2022-08-19T03:25:23;20.40;;;10.60;;
30384;SDS011;17181;51.002;4.096;2022-08-19T03:27:49;20.97;;;9.60;;
30384;SDS011;17181;51.002;4.096;2022-08-19T03:30:15;23.83;;;10.20;;
30384;SDS011;17181;51.002;4.096;2022-08-19T03:32:41;25.83;;;9.17;;
30384;SDS011;17181;51.002;4.096;2022-08-19T03:35:07;18.80;;;8.30;;
30384;SDS011;17181;51.002;4.096;2022-08-19T03:37:32;19.17;;;7.33;;
30384;SDS011;17181;51.002;4.096;2022-08-19T03:39:58;25.30;;;9.57;;
30384;SDS011;17181;51.002;4.096;2022-08-19T03:42:24;18.70;;;8.90;;
30384;SDS011;17181;51.002;4.096;2022-08-19T03:44:51;17.77;;;8.83;;
30384;SDS011;17181;51.002;4.096;2022-08-19T03:47:17;18.83;;;8.80;;
30384;SDS011;17181;51.002;4.096;2022-08-19T03:49:44;19.37;;;8.67;;
30384;SDS011;17181;51.002;4.096;2022-08-19T03:52:10;16.23;;;7.73;;
30384;SDS011;17181;51.002;4.096;2022-08-19T03:54:36;20.43;;;8.07;;
30384;SDS011;17181;51.002;4.096;2022-08-19T03:57:03;19.97;;;8.20;;
30384;SDS011;17181;51.002;4.096;2022-08-19T03:59:31;17.33;;;8.70;;
30384;SDS011;17181;51.002;4.096;2022-08-19T04:01:59;16.40;;;8.17;;
30384;SDS011;17181;51.002;4.096;2022-08-19T04:04:27;19.30;;;8.33;;
30384;SDS011;17181;51.002;4.096;2022-08-19T04:06:53;14.80;;;7.57;;
30384;SDS011;17181;51.002;4.096;2022-08-19T04:09:20;14.27;;;8.20;;
30384;SDS011;17181;51.002;4.096;2022-08-19T04:11:48;18.57;;;8.50;;
30384;SDS011;17181;51.002;4.096;2022-08-19T04:14:20;13.00;;;7.10;;
30384;SDS011;17181;51.002;4.096;2022-08-19T04:16:52;14.50;;;7.53;;
30384;SDS011;17181;51.002;4.096;2022-08-19T04:19:18;18.67;;;7.67;;
30384;SDS011;17181;51.002;4.096;2022-08-19T04:21:45;13.17;;;7.73;;
30384;SDS011;17181;51.002;4.096;2022-08-19T04:24:12;25.00;;;7.57;;
30384;SDS011;17181;51.002;4.096;2022-08-19T04:26:39;17.30;;;8.40;;
30384;SDS011;17181;51.002;4.096;2022-08-19T04:29:07;23.43;;;7.60;;
30384;SDS011;17181;51.002;4.096;2022-08-19T04:31:39;20.53;;;7.73;;
30384;SDS011;17181;51.002;4.096;2022-08-19T04:34:06;14.00;;;7.07;;
30384;SDS011;17181;51.002;4.096;2022-08-19T04:36:36;13.83;;;6.70;;
30384;SDS011;17181;51.002;4.096;2022-08-19T04:39:14;13.43;;;7.80;;
30384;SDS011;17181;51.002;4.096;2022-08-19T04:41:42;17.33;;;7.73;;
30384;SDS011;17181;51.002;4.096;2022-08-19T04:44:27;12.03;;;7.43;;
30384;SDS011;17181;51.002;4.096;2022-08-19T04:46:55;17.23;;;7.30;;
30384;SDS011;17181;51.002;4.096;2022-08-19T04:49:22;15.10;;;7.57;;
30384;SDS011;17181;51.002;4.096;2022-08-19T04:51:49;13.53;;;8.00;;
30384;SDS011;17181;51.002;4.096;2022-08-19T04:54:17;17.10;;;7.63;;
30384;SDS011;17181;51.002;4.096;2022-08-19T04:56:45;21.50;;;7.50;;
30384;SDS011;17181;51.002;4.096;2022-08-19T04:59:11;12.40;;;6.57;;
30384;SDS011;17181;51.002;4.096;2022-08-19T05:01:37;11.03;;;5.43;;
30384;SDS011;17181;51.002;4.096;2022-08-19T05:04:04;12.67;;;7.37;;
30384;SDS011;17181;51.002;4.096;2022-08-19T05:06:31;10.20;;;6.37;;
30384;SDS011;17181;51.002;4.096;2022-08-19T05:08:59;13.77;;;7.73;;
30384;SDS011;17181;51.002;4.096;2022-08-19T05:11:27;13.53;;;7.57;;
30384;SDS011;17181;51.002;4.096;2022-08-19T05:13:56;17.57;;;8.43;;
30384;SDS011;17181;51.002;4.096;2022-08-19T05:16:23;17.37;;;7.73;;
30384;SDS011;17181;51.002;4.096;2022-08-19T05:18:51;15.33;;;7.13;;
30384;SDS011;17181;51.002;4.096;2022-08-19T05:21:35;13.47;;;7.37;;
30384;SDS011;17181;51.002;4.096;2022-08-19T05:24:21;17.80;;;7.83;;
30384;SDS011;17181;51.002;4.096;2022-08-19T05:26:48;17.53;;;8.07;;
30384;SDS011;17181;51.002;4.096;2022-08-19T05:29:18;15.37;;;7.33;;
30384;SDS011;17181;51.002;4.096;2022-08-19T05:31:46;14.90;;;7.63;;
30384;SDS011;17181;51.002;4.096;2022-08-19T05:34:16;13.03;;;7.73;;
30384;SDS011;17181;51.002;4.096;2022-08-19T05:36:44;12.90;;;7.27;;
30384;SDS011;17181;51.002;4.096;2022-08-19T05:39:11;22.70;;;7.80;;
30384;SDS011;17181;51.002;4.096;2022-08-19T05:41:44;18.33;;;9.33;;
30384;SDS011;17181;51.002;4.096;2022-08-19T05:44:12;16.10;;;6.80;;
30384;SDS011;17181;51.002;4.096;2022-08-19T05:46:39;14.77;;;7.97;;
30384;SDS011;17181;51.002;4.096;2022-08-19T05:49:07;15.10;;;7.83;;
30384;SDS011;17181;51.002;4.096;2022-08-19T05:51:34;7.00;;;4.90;;
30384;SDS011;17181;51.002;4.096;2022-08-19T05:54:02;11.13;;;6.47;;
30384;SDS011;17181;51.002;4.096;2022-08-19T05:56:30;11.23;;;5.90;;
30384;SDS011;17181;51.002;4.096;2022-08-19T05:58:57;18.27;;;7.03;;
30384;SDS011;17181;51.002;4.096;2022-08-19T06:01:24;19.93;;;6.17;;
30384;SDS011;17181;51.002;4.096;2022-08-19T06:03:51;12.70;;;5.03;;
30384;SDS011;17181;51.002;4.096;2022-08-19T06:06:17;22.43;;;5.80;;
30384;SDS011;17181;51.002;4.096;2022-08-19T06:08:43;9.67;;;5.50;;
30384;SDS011;17181;51.002;4.096;2022-08-19T06:14:12;14.13;;;5.47;;
30384;SDS011;17181;51.002;4.096;2022-08-19T06:16:41;8.43;;;6.03;;
30384;SDS011;17181;51.002;4.096;2022-08-19T06:19:11;9.87;;;5.53;;
30384;SDS011;17181;51.002;4.096;2022-08-19T06:21:39;8.73;;;6.03;;
30384;SDS011;17181;51.002;4.096;2022-08-19T06:24:07;12.20;;;5.83;;
30384;SDS011;17181;51.002;4.096;2022-08-19T06:26:35;12.00;;;5.47;;
30384;SDS011;17181;51.002;4.096;2022-08-19T06:29:03;14.73;;;6.67;;
30384;SDS011;17181;51.002;4.096;2022-08-19T06:31:32;16.80;;;6.77;;
30384;SDS011;17181;51.002;4.096;2022-08-19T06:34:00;10.97;;;6.33;;
30384;SDS011;17181;51.002;4.096;2022-08-19T06:36:33;12.47;;;6.33;;
30384;SDS011;17181;51.002;4.096;2022-08-19T06:39:03;12.80;;;5.80;;
30384;SDS011;17181;51.002;4.096;2022-08-19T06:41:31;14.13;;;5.00;;
30384;SDS011;17181;51.002;4.096;2022-08-19T06:44:01;9.57;;;5.20;;
30384;SDS011;17181;51.002;4.096;2022-08-19T06:46:27;6.70;;;4.37;;
30384;SDS011;17181;51.002;4.096;2022-08-19T06:48:53;10.80;;;5.50;;
30384;SDS011;17181;51.002;4.096;2022-08-19T06:51:20;10.33;;;5.90;;
30384;SDS011;17181;51.002;4.096;2022-08-19T06:53:51;15.03;;;5.27;;
30384;SDS011;17181;51.002;4.096;2022-08-19T06:56:20;11.47;;;4.60;;
30384;SDS011;17181;51.002;4.096;2022-08-19T06:58:50;11.70;;;5.27;;
30384;SDS011;17181;51.002;4.096;2022-08-19T07:01:18;14.10;;;4.53;;
30384;SDS011;17181;51.002;4.096;2022-08-19T07:03:45;10.47;;;4.80;;
30384;SDS011;17181;51.002;4.096;2022-08-19T07:06:12;8.57;;;5.43;;
30384;SDS011;17181;51.002;4.096;2022-08-19T07:08:42;11.67;;;5.43;;
30384;SDS011;17181;51.002;4.096;2022-08-19T07:11:13;9.77;;;4.97;;
30384;SDS011;17181;51.002;4.096;2022-08-19T07:13:41;8.00;;;4.50;;
30384;SDS011;17181;51.002;4.096;2022-08-19T07:16:10;10.17;;;3.90;;
30384;SDS011;17181;51.002;4.096;2022-08-19T07:18:39;5.97;;;3.37;;
30384;SDS011;17181;51.002;4.096;2022-08-19T07:21:16;5.30;;;3.40;;
30384;SDS011;17181;51.002;4.096;2022-08-19T07:23:47;8.83;;;4.90;;
30384;SDS011;17181;51.002;4.096;2022-08-19T07:26:21;8.27;;;5.10;;
30384;SDS011;17181;51.002;4.096;2022-08-19T07:28:49;18.93;;;4.37;;
30384;SDS011;17181;51.002;4.096;2022-08-19T07:31:17;8.87;;;4.07;;
30384;SDS011;17181;51.002;4.096;2022-08-19T07:33:48;6.07;;;4.17;;
30384;SDS011;17181;51.002;4.096;2022-08-19T07:36:17;6.20;;;4.47;;
30384;SDS011;17181;51.002;4.096;2022-08-19T07:38:46;7.13;;;3.90;;
30384;SDS011;17181;51.002;4.096;2022-08-19T07:41:15;9.70;;;4.17;;
30384;SDS011;17181;51.002;4.096;2022-08-19T07:43:45;6.30;;;3.97;;
30384;SDS011;17181;51.002;4.096;2022-08-19T07:46:12;12.37;;;5.27;;
30384;SDS011;17181;51.002;4.096;2022-08-19T07:48:39;12.43;;;4.70;;
30384;SDS011;17181;51.002;4.096;2022-08-19T07:51:10;6.93;;;4.60;;
30384;SDS011;17181;51.002;4.096;2022-08-19T07:53:36;9.90;;;4.80;;
30384;SDS011;17181;51.002;4.096;2022-08-19T07:56:03;4.37;;;3.13;;
30384;SDS011;17181;51.002;4.096;2022-08-19T07:58:31;7.17;;;3.00;;
30384;SDS011;17181;51.002;4.096;2022-08-19T08:00:58;9.73;;;4.27;;
30384;SDS011;17181;51.002;4.096;2022-08-19T08:03:25;9.93;;;4.33;;
30384;SDS011;17181;51.002;4.096;2022-08-19T08:06:11;11.13;;;4.00;;
30384;SDS011;17181;51.002;4.096;2022-08-19T08:08:58;11.50;;;3.73;;
30384;SDS011;17181;51.002;4.096;2022-08-19T08:11:37;10.47;;;3.80;;
30384;SDS011;17181;51.002;4.096;2022-08-19T08:14:02;3.47;;;2.30;;
30384;SDS011;17181;51.002;4.096;2022-08-19T08:16:30;6.43;;;3.00;;
30384;SDS011;17181;51.002;4.096;2022-08-19T08:18:58;10.30;;;3.23;;
30384;SDS011;17181;51.002;4.096;2022-08-19T08:21:24;9.43;;;3.47;;
30384;SDS011;17181;51.002;4.096;2022-08-19T08:23:50;8.10;;;2.90;;
30384;SDS011;17181;51.002;4.096;2022-08-19T08:26:18;5.73;;;2.97;;
30384;SDS011;17181;51.002;4.096;2022-08-19T08:28:44;5.90;;;3.00;;
30384;SDS011;17181;51.002;4.096;2022-08-19T08:31:12;10.70;;;3.70;;
30384;SDS011;17181;51.002;4.096;2022-08-19T08:33:38;8.90;;;3.50;;
30384;SDS011;17181;51.002;4.096;2022-08-19T08:36:07;7.23;;;4.10;;
30384;SDS011;17181;51.002;4.096;2022-08-19T08:38:33;7.67;;;3.23;;
30384;SDS011;17181;51.002;4.096;2022-08-19T08:41:01;4.53;;;3.57;;
30384;SDS011;17181;51.002;4.096;2022-08-19T08:43:37;5.00;;;3.03;;
30384;SDS011;17181;51.002;4.096;2022-08-19T08:46:12;15.23;;;3.10;;
30384;SDS011;17181;51.002;4.096;2022-08-19T08:48:51;10.67;;;3.90;;
30384;SDS011;17181;51.002;4.096;2022-08-19T08:51:26;8.83;;;3.40;;
30384;SDS011;17181;51.002;4.096;2022-08-19T08:54:06;7.00;;;4.00;;
30384;SDS011;17181;51.002;4.096;2022-08-19T08:56:35;6.93;;;4.00;;
30384;SDS011;17181;51.002;4.096;2022-08-19T08:59:05;6.63;;;3.47;;
30384;SDS011;17181;51.002;4.096;2022-08-19T09:01:44;13.20;;;3.23;;
30384;SDS011;17181;51.002;4.096;2022-08-19T09:04:10;7.60;;;3.23;;
30384;SDS011;17181;51.002;4.096;2022-08-19T09:09:14;15.17;;;4.00;;
30384;SDS011;17181;51.002;4.096;2022-08-19T09:16:57;2.90;;;2.33;;
30384;SDS011;17181;51.002;4.096;2022-08-19T09:19:24;10.13;;;4.37;;
30384;SDS011;17181;51.002;4.096;2022-08-19T09:21:50;18.60;;;3.83;;
30384;SDS011;17181;51.002;4.096;2022-08-19T09:24:16;5.87;;;4.07;;
30384;SDS011;17181;51.002;4.096;2022-08-19T09:26:42;6.27;;;3.20;;
30384;SDS011;17181;51.002;4.096;2022-08-19T09:29:09;4.90;;;3.80;;
30384;SDS011;17181;51.002;4.096;2022-08-19T09:31:35;4.20;;;3.50;;
30384;SDS011;17181;51.002;4.096;2022-08-19T09:34:02;5.97;;;3.33;;
30384;SDS011;17181;51.002;4.096;2022-08-19T09:36:29;10.10;;;3.33;;
30384;SDS011;17181;51.002;4.096;2022-08-19T09:38:58;6.57;;;3.80;;
30384;SDS011;17181;51.002;4.096;2022-08-19T09:41:25;4.20;;;3.47;;
30384;SDS011;17181;51.002;4.096;2022-08-19T09:43:52;5.43;;;3.07;;
30384;SDS011;17181;51.002;4.096;2022-08-19T09:46:21;4.00;;;3.13;;
30384;SDS011;17181;51.002;4.096;2022-08-19T09:48:49;4.10;;;2.60;;
30384;SDS011;17181;51.002;4.096;2022-08-19T09:51:17;8.13;;;4.00;;
30384;SDS011;17181;51.002;4.096;2022-08-19T09:53:46;8.20;;;4.17;;
30384;SDS011;17181;51.002;4.096;2022-08-19T09:56:15;6.47;;;2.87;;
30384;SDS011;17181;51.002;4.096;2022-08-19T09:58:42;7.33;;;3.17;;
30384;SDS011;17181;51.002;4.096;2022-08-19T10:01:08;8.13;;;3.80;;
30384;SDS011;17181;51.002;4.096;2022-08-19T10:03:35;9.57;;;3.90;;
30384;SDS011;17181;51.002;4.096;2022-08-19T10:06:03;10.10;;;3.53;;
30384;SDS011;17181;51.002;4.096;2022-08-19T10:08:31;4.50;;;2.60;;
30384;SDS011;17181;51.002;4.096;2022-08-19T10:11:00;3.20;;;2.33;;
30384;SDS011;17181;51.002;4.096;2022-08-19T10:13:27;4.00;;;3.00;;
30384;SDS011;17181;51.002;4.096;2022-08-19T10:15:55;3.33;;;2.63;;
30384;SDS011;17181;51.002;4.096;2022-08-19T10:18:27;5.97;;;2.30;;
30384;SDS011;17181;51.002;4.096;2022-08-19T10:21:01;3.43;;;2.60;;
30384;SDS011;17181;51.002;4.096;2022-08-19T10:23:36;2.97;;;2.33;;
30384;SDS011;17181;51.002;4.096;2022-08-19T10:26:04;7.00;;;3.03;;
30384;SDS011;17181;51.002;4.096;2022-08-19T10:28:35;4.33;;;3.03;;
30384;SDS011;17181;51.002;4.096;2022-08-19T10:31:08;6.33;;;2.90;;
30384;SDS011;17181;51.002;4.096;2022-08-19T10:33:39;6.67;;;2.43;;
30384;SDS011;17181;51.002;4.096;2022-08-19T10:36:10;5.73;;;2.53;;
30384;SDS011;17181;51.002;4.096;2022-08-19T10:38:42;3.50;;;2.07;;
30384;SDS011;17181;51.002;4.096;2022-08-19T10:41:14;7.20;;;2.70;;
30384;SDS011;17181;51.002;4.096;2022-08-19T10:43:42;2.60;;;2.03;;
30384;SDS011;17181;51.002;4.096;2022-08-19T10:46:10;5.47;;;2.60;;
30384;SDS011;17181;51.002;4.096;2022-08-19T10:48:38;3.63;;;2.43;;
30384;SDS011;17181;51.002;4.096;2022-08-19T10:51:04;6.33;;;2.53;;
30384;SDS011;17181;51.002;4.096;2022-08-19T10:53:49;12.87;;;2.37;;
30384;SDS011;17181;51.002;4.096;2022-08-19T10:56:16;4.83;;;3.03;;
30384;SDS011;17181;51.002;4.096;2022-08-19T10:59:01;7.37;;;3.27;;
30384;SDS011;17181;51.002;4.096;2022-08-19T11:01:28;4.43;;;2.47;;
30384;SDS011;17181;51.002;4.096;2022-08-19T11:03:56;3.07;;;2.40;;
30384;SDS011;17181;51.002;4.096;2022-08-19T11:06:22;2.27;;;2.07;;
30384;SDS011;17181;51.002;4.096;2022-08-19T11:08:50;6.97;;;2.90;;
30384;SDS011;17181;51.002;4.096;2022-08-19T11:11:17;7.63;;;3.07;;
30384;SDS011;17181;51.002;4.096;2022-08-19T11:13:43;6.10;;;3.30;;
30384;SDS011;17181;51.002;4.096;2022-08-19T11:16:10;5.70;;;2.73;;
30384;SDS011;17181;51.002;4.096;2022-08-19T11:18:40;3.93;;;2.53;;
30384;SDS011;17181;51.002;4.096;2022-08-19T11:21:19;2.57;;;1.93;;
30384;SDS011;17181;51.002;4.096;2022-08-19T11:23:50;3.23;;;2.47;;
30384;SDS011;17181;51.002;4.096;2022-08-19T11:26:20;3.77;;;2.57;;
30384;SDS011;17181;51.002;4.096;2022-08-19T11:28:47;3.20;;;1.70;;
30384;SDS011;17181;51.002;4.096;2022-08-19T11:31:14;3.73;;;2.40;;
30384;SDS011;17181;51.002;4.096;2022-08-19T11:33:44;2.77;;;1.90;;
30384;SDS011;17181;51.002;4.096;2022-08-19T11:36:11;7.90;;;2.17;;
30384;SDS011;17181;51.002;4.096;2022-08-19T11:38:37;5.43;;;2.13;;
30384;SDS011;17181;51.002;4.096;2022-08-19T11:41:07;3.37;;;2.00;;
30384;SDS011;17181;51.002;4.096;2022-08-19T11:43:33;4.23;;;2.40;;
30384;SDS011;17181;51.002;4.096;2022-08-19T11:46:03;2.87;;;2.13;;
30384;SDS011;17181;51.002;4.096;2022-08-19T11:48:32;3.43;;;1.77;;
30384;SDS011;17181;51.002;4.096;2022-08-19T11:50:58;5.27;;;1.73;;
30384;SDS011;17181;51.002;4.096;2022-08-19T11:53:24;2.00;;;1.90;;
30384;SDS011;17181;51.002;4.096;2022-08-19T11:55:52;5.23;;;2.20;;
30384;SDS011;17181;51.002;4.096;2022-08-19T11:58:21;2.63;;;1.57;;
30384;SDS011;17181;51.002;4.096;2022-08-19T12:00:48;2.67;;;1.53;;
30384;SDS011;17181;51.002;4.096;2022-08-19T12:03:13;3.77;;;2.57;;
30384;SDS011;17181;51.002;4.096;2022-08-19T12:05:40;9.10;;;2.80;;
30384;SDS011;17181;51.002;4.096;2022-08-19T12:08:06;6.30;;;2.67;;
30384;SDS011;17181;51.002;4.096;2022-08-19T12:10:33;8.77;;;3.37;;
30384;SDS011;17181;51.002;4.096;2022-08-19T12:13:00;5.17;;;2.53;;
30384;SDS011;17181;51.002;4.096;2022-08-19T12:15:26;5.83;;;1.80;;
30384;SDS011;17181;51.002;4.096;2022-08-19T12:17:54;2.70;;;2.50;;
30384;SDS011;17181;51.002;4.096;2022-08-19T12:20:22;5.17;;;2.70;;
30384;SDS011;17181;51.002;4.096;2022-08-19T12:22:51;3.53;;;2.60;;
30384;SDS011;17181;51.002;4.096;2022-08-19T12:25:17;8.80;;;3.23;;
30384;SDS011;17181;51.002;4.096;2022-08-19T12:27:43;13.33;;;3.10;;
30384;SDS011;17181;51.002;4.096;2022-08-19T12:30:09;4.03;;;2.97;;
30384;SDS011;17181;51.002;4.096;2022-08-19T12:32:37;4.30;;;2.60;;
30384;SDS011;17181;51.002;4.096;2022-08-19T12:35:04;6.80;;;3.13;;
30384;SDS011;17181;51.002;4.096;2022-08-19T12:37:30;5.00;;;2.40;;
30384;SDS011;17181;51.002;4.096;2022-08-19T12:39:57;1.53;;;1.30;;
30384;SDS011;17181;51.002;4.096;2022-08-19T12:42:23;2.53;;;2.03;;
30384;SDS011;17181;51.002;4.096;2022-08-19T12:44:50;2.33;;;1.83;;
30384;SDS011;17181;51.002;4.096;2022-08-19T12:47:16;3.80;;;3.10;;
30384;SDS011;17181;51.002;4.096;2022-08-19T12:49:43;4.37;;;3.23;;
30384;SDS011;17181;51.002;4.096;2022-08-19T12:52:09;5.83;;;1.67;;
30384;SDS011;17181;51.002;4.096;2022-08-19T12:54:35;0.87;;;0.87;;
30384;SDS011;17181;51.002;4.096;2022-08-19T12:57:06;3.60;;;1.60;;
30384;SDS011;17181;51.002;4.096;2022-08-19T12:59:34;3.30;;;1.63;;
30384;SDS011;17181;51.002;4.096;2022-08-19T13:02:03;6.83;;;2.00;;
30384;SDS011;17181;51.002;4.096;2022-08-19T13:04:31;1.83;;;1.73;;
30384;SDS011;17181;51.002;4.096;2022-08-19T13:07:00;1.87;;;1.67;;
30384;SDS011;17181;51.002;4.096;2022-08-19T13:09:26;1.97;;;1.67;;
30384;SDS011;17181;51.002;4.096;2022-08-19T13:11:51;1.37;;;1.27;;
30384;SDS011;17181;51.002;4.096;2022-08-19T13:14:17;2.00;;;1.87;;
30384;SDS011;17181;51.002;4.096;2022-08-19T13:16:46;5.60;;;2.17;;
30384;SDS011;17181;51.002;4.096;2022-08-19T13:19:11;6.10;;;2.83;;
30384;SDS011;17181;51.002;4.096;2022-08-19T13:21:38;2.50;;;2.30;;
30384;SDS011;17181;51.002;4.096;2022-08-19T13:24:04;2.13;;;1.80;;
30384;SDS011;17181;51.002;4.096;2022-08-19T13:26:30;2.93;;;2.20;;
30384;SDS011;17181;51.002;4.096;2022-08-19T13:28:56;1.20;;;1.10;;
30384;SDS011;17181;51.002;4.096;2022-08-19T13:31:40;0.60;;;0.60;;
30384;SDS011;17181;51.002;4.096;2022-08-19T13:34:29;1.58;;;1.30;;
30384;SDS011;17181;51.002;4.096;2022-08-19T13:36:58;1.58;;;1.48;;
30384;SDS011;17181;51.002;4.096;2022-08-19T13:39:27;3.58;;;2.33;;
30384;SDS011;17181;51.002;4.096;2022-08-19T13:41:54;1.00;;;0.98;;
30384;SDS011;17181;51.002;4.096;2022-08-19T13:44:20;0.40;;;0.40;;
30384;SDS011;17181;51.002;4.096;2022-08-19T13:46:47;1.02;;;0.57;;
30384;SDS011;17181;51.002;4.096;2022-08-19T13:49:16;1.25;;;1.15;;
30384;SDS011;17181;51.002;4.096;2022-08-19T13:51:42;0.47;;;0.47;;
30384;SDS011;17181;51.002;4.096;2022-08-19T13:54:09;0.90;;;0.90;;
30384;SDS011;17181;51.002;4.096;2022-08-19T13:56:39;2.00;;;1.33;;
30384;SDS011;17181;51.002;4.096;2022-08-19T13:59:09;6.60;;;1.15;;
30384;SDS011;17181;51.002;4.096;2022-08-19T14:01:35;0.20;;;0.20;;
30384;SDS011;17181;51.002;4.096;2022-08-19T14:04:02;0.73;;;0.65;;
30384;SDS011;17181;51.002;4.096;2022-08-19T14:06:28;4.60;;;0.73;;
30384;SDS011;17181;51.002;4.096;2022-08-19T14:08:54;0.93;;;0.93;;
30384;SDS011;17181;51.002;4.096;2022-08-19T14:11:20;5.27;;;1.03;;
30384;SDS011;17181;51.002;4.096;2022-08-19T14:13:48;1.40;;;0.83;;
30384;SDS011;17181;51.002;4.096;2022-08-19T14:16:14;0.70;;;0.67;;
30384;SDS011;17181;51.002;4.096;2022-08-19T14:18:41;0.50;;;0.50;;
30384;SDS011;17181;51.002;4.096;2022-08-19T18:45:04;3.57;;;2.30;;
30384;SDS011;17181;51.002;4.096;2022-08-19T18:47:49;2.67;;;2.40;;
30384;SDS011;17181;51.002;4.096;2022-08-19T18:50:34;9.30;;;2.67;;
30384;SDS011;17181;51.002;4.096;2022-08-19T18:53:01;3.40;;;2.13;;
30384;SDS011;17181;51.002;4.096;2022-08-19T18:55:27;3.83;;;2.57;;
30384;SDS011;17181;51.002;4.096;2022-08-19T18:57:53;3.77;;;2.63;;
30384;SDS011;17181;51.002;4.096;2022-08-19T19:00:19;4.33;;;2.77;;
30384;SDS011;17181;51.002;4.096;2022-08-19T19:02:44;6.33;;;2.83;;
30384;SDS011;17181;51.002;4.096;2022-08-19T19:05:11;3.87;;;2.83;;
30384;SDS011;17181;51.002;4.096;2022-08-19T19:07:39;4.90;;;1.93;;
30384;SDS011;17181;51.002;4.096;2022-08-19T19:10:05;5.40;;;2.37;;
30384;SDS011;17181;51.002;4.096;2022-08-19T19:12:35;1.43;;;1.23;;
30384;SDS011;17181;51.002;4.096;2022-08-19T19:15:07;0.50;;;0.50;;
30384;SDS011;17181;51.002;4.096;2022-08-19T19:17:33;0.47;;;0.47;;
30384;SDS011;17181;51.002;4.096;2022-08-19T19:19:59;1.83;;;1.57;;